Giewont — C6YE4 — position and weather

sailwx.info

Track history (hours):
 
Tides and Currents Weather Stations Pressure Air Temp Water Temp Dewpoint Dewpoint Depression Visibility Wind Speed Wind Dir Waves Ship Positions

Giewont

Last reported at 2016-Feb-04 13:09 UTC. Time now 2016-Feb-14 21:02 UTC.
Position S 32°43' E 115°03'.
Warning: this ship's position is 10 days out of date.

Length 229 m; draft 7.5 m.

Type: Cargo ship. MMSI: 311029800.

Date/timePositionNaut miles runAvg speedWind from/ knotsBaromVisibWave heightAir tempDewpointWater temp
2016-Feb-04 13:09S 32°43' E 115°03'3011.5
2016-Feb-04 10:33S 32°16' E 115°16'1111.1
2016-Feb-04 09:33S 32°05' E 115°21'1310.7
2016-Feb-04 08:19S 31°56' E 115°32'911.8
2016-Feb-04 07:34S 31°59' E 115°42'3 2.7
2016-Feb-04 06:33S 32°01' E 115°40'0 0.0
2016-Feb-04 05:33S 32°01' E 115°40'0 0.2
2016-Feb-04 04:33S 32°01' E 115°40'0 0.1
2016-Feb-04 03:33S 32°01' E 115°40'0 0.0
2016-Feb-04 02:33S 32°01' E 115°40'0 0.1
2016-Feb-04 01:33S 32°01' E 115°40'0 0.0
2016-Feb-04 00:33S 32°01' E 115°40'0 0.0
2016-Feb-03 23:33S 32°01' E 115°40'1 1.5
2016-Feb-03 22:33S 31°60' E 115°40'6 6.5
2016-Feb-03 21:33S 31°56' E 115°34'28 9.1
2016-Feb-03 18:31S 31°43' E 115°06'7 7.2
2016-Feb-03 17:33S 31°39' E 114°60'7 7.0
2016-Feb-03 16:33S 31°33' E 114°54'7 6.7
2016-Feb-03 15:33S 31°29' E 114°48'  
Track history (hours):
 
Tides and Currents Weather Stations Pressure Air Temp Water Temp Dewpoint Dewpoint Depression Visibility Wind Speed Wind Dir Waves Ship Positions

Giewont

Last reported at 2016-Feb-04 13:09 UTC. Time now 2016-Feb-14 21:02 UTC.
Position S 32°43' E 115°03'.
Warning: this ship's position is 10 days out of date.

Length 229 m; draft 7.5 m.

Type: Cargo ship. MMSI: 311029800.

Date/timePositionNaut miles runAvg speedWind from/ knotsBaromVisibWave heightAir tempDewpointWater temp
2016-Feb-04 13:09S 32°43' E 115°03'3011.5
2016-Feb-04 10:33S 32°16' E 115°16'1111.1
2016-Feb-04 09:33S 32°05' E 115°21'1310.7
2016-Feb-04 08:19S 31°56' E 115°32'911.8
2016-Feb-04 07:34S 31°59' E 115°42'3 2.7
2016-Feb-04 06:33S 32°01' E 115°40'0 0.0
2016-Feb-04 05:33S 32°01' E 115°40'0 0.2
2016-Feb-04 04:33S 32°01' E 115°40'0 0.1
2016-Feb-04 03:33S 32°01' E 115°40'0 0.0
2016-Feb-04 02:33S 32°01' E 115°40'0 0.1
2016-Feb-04 01:33S 32°01' E 115°40'0 0.0
2016-Feb-04 00:33S 32°01' E 115°40'0 0.0
2016-Feb-03 23:33S 32°01' E 115°40'1 1.5
2016-Feb-03 22:33S 31°60' E 115°40'6 6.5
2016-Feb-03 21:33S 31°56' E 115°34'28 9.1
2016-Feb-03 18:31S 31°43' E 115°06'7 7.2
2016-Feb-03 17:33S 31°39' E 114°60'7 7.0
2016-Feb-03 16:33S 31°33' E 114°54'7 6.7
2016-Feb-03 15:33S 31°29' E 114°48'  

Dump ship's entire track history